Time,TemperatureF,DewpointF,PressureIn,WindDirection,WindDirectionDegrees,WindSpeedMPH,WindSpeedGustMPH,Humidity,HourlyPrecipIn,Conditions,Clouds,dailyrainin,SoftwareType,DateUTC
2013-02-03 00:22:00,18.0,13.0,-100.00,North,-999,-999.0,-999.0,81,-99.99,,,-99.99,,2013-02-03 05:22:00,
2013-02-03 00:52:00,17.0,12.0,-100.00,North,-999,-999.0,-999.0,81,-99.99,,,-99.99,,2013-02-03 05:52:00,
2013-02-03 01:21:00,17.0,12.0,-100.00,North,-999,-999.0,-999.0,81,-99.99,,,-99.99,,2013-02-03 06:21:00,
2013-02-03 01:32:00,17.0,12.0,-100.00,North,-999,-999.0,-999.0,81,-99.99,,,-99.99,,2013-02-03 06:32:00,
2013-02-03 01:42:00,17.0,12.0,-100.00,North,-999,-999.0,-999.0,81,-99.99,,,-99.99,,2013-02-03 06:42:00,
2013-02-03 01:52:00,17.0,12.0,-100.00,North,-999,-999.0,-999.0,82,-99.99,,,-99.99,,2013-02-03 06:52:00,
2013-02-03 02:02:00,16.0,11.0,-100.00,North,-999,-999.0,-999.0,82,-99.99,,,-99.99,,2013-02-03 07:02:00,
2013-02-03 02:11:00,16.0,11.0,-100.00,North,-999,-999.0,-999.0,82,-99.99,,,-99.99,,2013-02-03 07:11:00,
2013-02-03 02:21:00,17.0,12.0,-100.00,North,-999,-999.0,-999.0,82,-99.99,,,-99.99,,2013-02-03 07:21:00,
2013-02-03 02:32:00,17.0,12.0,-100.00,North,-999,-999.0,-999.0,82,-99.99,,,-99.99,,2013-02-03 07:32:00,
2013-02-03 02:42:00,17.0,12.0,-100.00,North,-999,-999.0,-999.0,82,-99.99,,,-99.99,,2013-02-03 07:42:00,
2013-02-03 02:52:00,16.0,11.0,-100.00,North,-999,-999.0,-999.0,82,-99.99,,,-99.99,,2013-02-03 07:52:00,
2013-02-03 03:02:00,16.0,11.0,-100.00,North,-999,-999.0,-999.0,82,-99.99,,,-99.99,,2013-02-03 08:02:00,
2013-02-03 03:11:00,16.0,11.0,-100.00,North,-999,-999.0,-999.0,82,-99.99,,,-99.99,,2013-02-03 08:11:00,
2013-02-03 03:22:00,16.0,12.0,-100.00,North,-999,-999.0,-999.0,83,-99.99,,,-99.99,,2013-02-03 08:22:00,
2013-02-03 03:32:00,16.0,12.0,-100.00,North,-999,-999.0,-999.0,83,-99.99,,,-99.99,,2013-02-03 08:32:00,
2013-02-03 03:42:00,16.0,12.0,-100.00,North,-999,-999.0,-999.0,83,-99.99,,,-99.99,,2013-02-03 08:42:00,
2013-02-03 03:52:00,16.0,12.0,-100.00,North,-999,-999.0,-999.0,83,-99.99,,,-99.99,,2013-02-03 08:52:00,
2013-02-03 04:03:00,16.0,12.0,-100.00,North,-999,-999.0,-999.0,83,-99.99,,,-99.99,,2013-02-03 09:03:00,
2013-02-03 04:11:00,16.0,12.0,-100.00,North,-999,-999.0,-999.0,83,-99.99,,,-99.99,,2013-02-03 09:11:00,
2013-02-03 04:52:00,15.0,11.0,-100.00,North,-999,-999.0,-999.0,83,-99.99,,,-99.99,,2013-02-03 09:52:00,
2013-02-03 05:21:00,14.0,10.0,-100.00,North,-999,-999.0,-999.0,83,-99.99,,,-99.99,,2013-02-03 10:21:00,
2013-02-03 05:32:00,14.0,10.0,-100.00,North,-999,-999.0,-999.0,83,-99.99,,,-99.99,,2013-02-03 10:32:00,
2013-02-03 05:42:00,14.0,10.0,-100.00,North,-999,-999.0,-999.0,83,-99.99,,,-99.99,,2013-02-03 10:42:00,
2013-02-03 05:53:00,13.0,9.0,-100.00,North,-999,-999.0,-999.0,83,-99.99,,,-99.99,,2013-02-03 10:53:00,
2013-02-03 06:02:00,12.0,8.0,-100.00,North,-999,-999.0,-999.0,83,-99.99,,,-99.99,,2013-02-03 11:02:00,
2013-02-03 06:11:00,12.0,8.0,-100.00,North,-999,-999.0,-999.0,83,-99.99,,,-99.99,,2013-02-03 11:11:00,
2013-02-03 06:22:00,12.0,8.0,-100.00,North,-999,-999.0,-999.0,85,-99.99,,,-99.99,,2013-02-03 11:22:00,
2013-02-03 06:32:00,12.0,8.0,-100.00,North,-999,-999.0,-999.0,85,-99.99,,,-99.99,,2013-02-03 11:32:00,
2013-02-03 06:42:00,12.0,8.0,-100.00,North,-999,-999.0,-999.0,85,-99.99,,,-99.99,,2013-02-03 11:42:00,
2013-02-03 06:52:00,11.0,7.0,-100.00,North,-999,-999.0,-999.0,85,-99.99,,,-99.99,,2013-02-03 11:52:00,
2013-02-03 07:02:00,10.0,6.0,-100.00,North,-999,-999.0,-999.0,85,-99.99,,,-99.99,,2013-02-03 12:02:00,
2013-02-03 07:12:00,10.0,6.0,-100.00,North,-999,-999.0,-999.0,85,-99.99,,,-99.99,,2013-02-03 12:12:00,
2013-02-03 07:22:00,10.0,6.0,-100.00,North,-999,-999.0,-999.0,85,-99.99,,,-99.99,,2013-02-03 12:22:00,
2013-02-03 07:32:00,11.0,7.0,-100.00,North,-999,-999.0,-999.0,85,-99.99,,,-99.99,,2013-02-03 12:32:00,
2013-02-03 07:42:00,11.0,7.0,-100.00,North,-999,-999.0,-999.0,85,-99.99,,,-99.99,,2013-02-03 12:42:00,
2013-02-03 07:53:00,11.0,7.0,-100.00,North,-999,-999.0,-999.0,85,-99.99,,,-99.99,,2013-02-03 12:53:00,
2013-02-03 08:22:00,13.0,9.0,-100.00,North,-999,-999.0,-999.0,85,-99.99,,,-99.99,,2013-02-03 13:22:00,
2013-02-03 08:52:00,20.0,15.0,-100.00,North,-999,-999.0,-999.0,82,-99.99,,,-99.99,,2013-02-03 13:52:00,
2013-02-03 09:03:00,20.0,15.0,-100.00,North,-999,-999.0,-999.0,82,-99.99,,,-99.99,,2013-02-03 14:03:00,
2013-02-03 09:12:00,20.0,15.0,-100.00,North,-999,-999.0,-999.0,82,-99.99,,,-99.99,,2013-02-03 14:12:00,
2013-02-03 09:22:00,22.0,16.0,-100.00,North,-999,-999.0,-999.0,78,-99.99,,,-99.99,,2013-02-03 14:22:00,
2013-02-03 09:32:00,21.0,15.0,-100.00,North,-999,-999.0,-999.0,76,-99.99,,,-99.99,,2013-02-03 14:32:00,
2013-02-03 09:43:00,21.0,15.0,-100.00,North,-999,-999.0,-999.0,76,-99.99,,,-99.99,,2013-02-03 14:43:00,
2013-02-03 09:52:00,23.0,16.0,-100.00,North,-999,-999.0,-999.0,73,-99.99,,,-99.99,,2013-02-03 14:52:00,
2013-02-03 10:03:00,23.0,15.0,-100.00,North,-999,-999.0,-999.0,72,-99.99,,,-99.99,,2013-02-03 15:03:00,
2013-02-03 10:11:00,23.0,15.0,-100.00,North,-999,-999.0,-999.0,72,-99.99,,,-99.99,,2013-02-03 15:11:00,
2013-02-03 10:22:00,24.0,15.0,-100.00,North,-999,-999.0,-999.0,69,-99.99,,,-99.99,,2013-02-03 15:22:00,
2013-02-03 10:33:00,25.0,16.0,-100.00,North,-999,-999.0,-999.0,69,-99.99,,,-99.99,,2013-02-03 15:33:00,
2013-02-03 10:42:00,25.0,16.0,-100.00,North,-999,-999.0,-999.0,69,-99.99,,,-99.99,,2013-02-03 15:42:00,
2013-02-03 11:03:00,25.0,15.0,-100.00,North,-999,-999.0,-999.0,65,-99.99,,,-99.99,,2013-02-03 16:03:00,
2013-02-03 11:11:00,25.0,15.0,-100.00,North,-999,-999.0,-999.0,65,-99.99,,,-99.99,,2013-02-03 16:11:00,
2013-02-03 11:33:00,28.0,18.0,-100.00,North,-999,-999.0,-999.0,65,-99.99,,,-99.99,,2013-02-03 16:33:00,
2013-02-03 11:42:00,28.0,18.0,-100.00,North,-999,-999.0,-999.0,65,-99.99,,,-99.99,,2013-02-03 16:42:00,
2013-02-03 12:22:00,33.0,21.0,-100.00,North,-999,-999.0,-999.0,60,-99.99,,,-99.99,,2013-02-03 17:22:00,
2013-02-03 12:32:00,30.0,17.0,-100.00,North,-999,-999.0,-999.0,58,-99.99,,,-99.99,,2013-02-03 17:32:00,
2013-02-03 12:42:00,30.0,17.0,-100.00,North,-999,-999.0,-999.0,58,-99.99,,,-99.99,,2013-02-03 17:42:00,
2013-02-03 12:52:00,26.0,14.0,-100.00,North,-999,-999.0,-999.0,60,-99.99,,,-99.99,,2013-02-03 17:52:00,
2013-02-03 13:23:00,27.0,15.0,-100.00,North,-999,-999.0,-999.0,60,-99.99,,,-99.99,,2013-02-03 18:23:00,
2013-02-03 13:33:00,27.0,15.0,-100.00,North,-999,-999.0,-999.0,59,-99.99,,,-99.99,,2013-02-03 18:33:00,
2013-02-03 13:42:00,27.0,15.0,-100.00,North,-999,-999.0,-999.0,59,-99.99,,,-99.99,,2013-02-03 18:42:00,
2013-02-03 13:52:00,33.0,19.0,-100.00,North,-999,-999.0,-999.0,55,-99.99,,,-99.99,,2013-02-03 18:52:00,
2013-02-03 14:02:00,32.0,17.0,-100.00,North,-999,-999.0,-999.0,53,-99.99,,,-99.99,,2013-02-03 19:02:00,
2013-02-03 14:22:00,29.0,14.0,-100.00,North,-999,-999.0,-999.0,53,-99.99,,,-99.99,,2013-02-03 19:22:00,
2013-02-03 14:32:00,28.0,14.0,-100.00,North,-999,-999.0,-999.0,56,-99.99,,,-99.99,,2013-02-03 19:32:00,
2013-02-03 14:42:00,28.0,14.0,-100.00,North,-999,-999.0,-999.0,56,-99.99,,,-99.99,,2013-02-03 19:42:00,
2013-02-03 14:51:00,28.0,15.0,-100.00,North,-999,-999.0,-999.0,58,-99.99,,,-99.99,,2013-02-03 19:51:00,
2013-02-03 15:02:00,28.0,15.0,-100.00,North,-999,-999.0,-999.0,58,-99.99,,,-99.99,,2013-02-03 20:02:00,
2013-02-03 15:12:00,28.0,15.0,-100.00,North,-999,-999.0,-999.0,58,-99.99,,,-99.99,,2013-02-03 20:12:00,
2013-02-03 15:22:00,25.0,13.0,-100.00,North,-999,-999.0,-999.0,59,-99.99,,,-99.99,,2013-02-03 20:22:00,
2013-02-03 15:33:00,25.0,13.0,-100.00,North,-999,-999.0,-999.0,59,-99.99,,,-99.99,,2013-02-03 20:33:00,
2013-02-03 15:42:00,25.0,13.0,-100.00,North,-999,-999.0,-999.0,59,-99.99,,,-99.99,,2013-02-03 20:42:00,
2013-02-03 15:52:00,25.0,13.0,-100.00,North,-999,-999.0,-999.0,60,-99.99,,,-99.99,,2013-02-03 20:52:00,
2013-02-03 16:03:00,26.0,14.0,-100.00,North,-999,-999.0,-999.0,60,-99.99,,,-99.99,,2013-02-03 21:03:00,
2013-02-03 16:11:00,26.0,14.0,-100.00,North,-999,-999.0,-999.0,60,-99.99,,,-99.99,,2013-02-03 21:11:00,
2013-02-03 16:21:00,24.0,13.0,-100.00,North,-999,-999.0,-999.0,62,-99.99,,,-99.99,,2013-02-03 21:21:00,
2013-02-03 16:32:00,25.0,14.0,-100.00,North,-999,-999.0,-999.0,63,-99.99,,,-99.99,,2013-02-03 21:32:00,
2013-02-03 16:42:00,25.0,14.0,-100.00,North,-999,-999.0,-999.0,63,-99.99,,,-99.99,,2013-02-03 21:42:00,
2013-02-03 16:52:00,23.0,13.0,-100.00,North,-999,-999.0,-999.0,65,-99.99,,,-99.99,,2013-02-03 21:52:00,
2013-02-03 17:02:00,23.0,13.0,-100.00,North,-999,-999.0,-999.0,65,-99.99,,,-99.99,,2013-02-03 22:02:00,
2013-02-03 17:11:00,23.0,13.0,-100.00,North,-999,-999.0,-999.0,65,-99.99,,,-99.99,,2013-02-03 22:11:00,
2013-02-03 17:21:00,22.0,13.0,-100.00,North,-999,-999.0,-999.0,69,-99.99,,,-99.99,,2013-02-03 22:21:00,
2013-02-03 17:32:00,21.0,12.0,-100.00,North,-999,-999.0,-999.0,68,-99.99,,,-99.99,,2013-02-03 22:32:00,
2013-02-03 17:42:00,21.0,12.0,-100.00,North,-999,-999.0,-999.0,68,-99.99,,,-99.99,,2013-02-03 22:42:00,
2013-02-03 17:52:00,19.0,11.0,-100.00,North,-999,-999.0,-999.0,71,-99.99,,,-99.99,,2013-02-03 22:52:00,
2013-02-03 18:22:00,17.0,10.0,-100.00,North,-999,-999.0,-999.0,74,-99.99,,,-99.99,,2013-02-03 23:22:00,
2013-02-03 18:52:00,15.0,9.0,-100.00,North,-999,-999.0,-999.0,76,-99.99,,,-99.99,,2013-02-03 23:52:00,
2013-02-03 19:02:00,14.0,8.0,-100.00,North,-999,-999.0,-999.0,78,-99.99,,,-99.99,,2013-02-04 00:02:00,
2013-02-03 19:11:00,14.0,8.0,-100.00,North,-999,-999.0,-999.0,78,-99.99,,,-99.99,,2013-02-04 00:11:00,
2013-02-03 19:22:00,14.0,9.0,-100.00,North,-999,-999.0,-999.0,79,-99.99,,,-99.99,,2013-02-04 00:22:00,
2013-02-03 19:32:00,14.0,9.0,-100.00,North,-999,-999.0,-999.0,79,-99.99,,,-99.99,,2013-02-04 00:32:00,
2013-02-03 19:42:00,14.0,9.0,-100.00,North,-999,-999.0,-999.0,79,-99.99,,,-99.99,,2013-02-04 00:42:00,
2013-02-03 19:52:00,14.0,9.0,-100.00,North,-999,-999.0,-999.0,81,-99.99,,,-99.99,,2013-02-04 00:52:00,
2013-02-03 20:01:00,14.0,9.0,-100.00,North,-999,-999.0,-999.0,81,-99.99,,,-99.99,,2013-02-04 01:01:00,
2013-02-03 20:11:00,14.0,9.0,-100.00,North,-999,-999.0,-999.0,81,-99.99,,,-99.99,,2013-02-04 01:11:00,
2013-02-03 20:21:00,14.0,9.0,-100.00,North,-999,-999.0,-999.0,81,-99.99,,,-99.99,,2013-02-04 01:21:00,
2013-02-03 20:32:00,14.0,9.0,-100.00,North,-999,-999.0,-999.0,81,-99.99,,,-99.99,,2013-02-04 01:32:00,
2013-02-03 20:42:00,14.0,9.0,-100.00,North,-999,-999.0,-999.0,81,-99.99,,,-99.99,,2013-02-04 01:42:00,
2013-02-03 20:52:00,14.0,9.0,-100.00,North,-999,-999.0,-999.0,81,-99.99,,,-99.99,,2013-02-04 01:52:00,
2013-02-03 21:02:00,14.0,10.0,-100.00,North,-999,-999.0,-999.0,82,-99.99,,,-99.99,,2013-02-04 02:02:00,
2013-02-03 21:11:00,14.0,10.0,-100.00,North,-999,-999.0,-999.0,82,-99.99,,,-99.99,,2013-02-04 02:11:00,
2013-02-03 21:21:00,15.0,11.0,-100.00,North,-999,-999.0,-999.0,82,-99.99,,,-99.99,,2013-02-04 02:21:00,
2013-02-03 21:32:00,14.0,9.0,-100.00,North,-999,-999.0,-999.0,81,-99.99,,,-99.99,,2013-02-04 02:32:00,
2013-02-03 21:42:00,14.0,9.0,-100.00,North,-999,-999.0,-999.0,81,-99.99,,,-99.99,,2013-02-04 02:42:00,
2013-02-03 22:21:00,13.0,9.0,-100.00,North,-999,-999.0,-999.0,82,-99.99,,,-99.99,,2013-02-04 03:21:00,
2013-02-03 22:32:00,12.0,8.0,-100.00,North,-999,-999.0,-999.0,82,-99.99,,,-99.99,,2013-02-04 03:32:00,
2013-02-03 22:42:00,12.0,8.0,-100.00,North,-999,-999.0,-999.0,82,-99.99,,,-99.99,,2013-02-04 03:42:00,
2013-02-03 22:52:00,12.0,8.0,-100.00,North,-999,-999.0,-999.0,83,-99.99,,,-99.99,,2013-02-04 03:52:00,
2013-02-03 23:01:00,12.0,8.0,-100.00,North,-999,-999.0,-999.0,84,-99.99,,,-99.99,,2013-02-04 04:01:00,
2013-02-03 23:11:00,12.0,8.0,-100.00,North,-999,-999.0,-999.0,84,-99.99,,,-99.99,,2013-02-04 04:11:00,
2013-02-03 23:21:00,10.0,6.0,-100.00,North,-999,-999.0,-999.0,83,-99.99,,,-99.99,,2013-02-04 04:21:00,
2013-02-03 23:42:00,10.0,6.0,-100.00,North,-999,-999.0,-999.0,83,-99.99,,,-99.99,,2013-02-04 04:42:00,
2013-02-03 23:52:00,11.0,7.0,-100.00,North,-999,-999.0,-999.0,84,-99.99,,,-99.99,,2013-02-04 04:52:00,